Adamsville, Pennsylvania
Current Conditions -  °F | °C
As of 4:02 AM on Wednesday 22 Oct 2014 (Local Time) from KGKJ Reporting Station
Overcast Overcast  
Wind Chill: 40°   Ceiling: 500
Heat Index: 45°   Visibility: 10mi
Dew Point: 42°   Wind: 10mph
Humidity: 90%   Direction: 20°NNE
Pressure: 30.08"   Gusts: NA
Location:  41.51°N, 80.37°W
Report Text: KGKJ 220802Z AUTO 02009KT 10SM OVC005 07/06 A3008 RMK AO2 T00720056 TSNO
Loading
Personal Weather Stations






























Interactive Weather Map
Tropical Storm Tracking
New forecast layout! Learn more

10-Day Weather Forecast

Advertisements
Track Severe Weather on mobile